Time;durP1;ratioP1;P1;durP2;ratioP2;P2;SDS_P1;SDS_P2;PMS_P1;PMS_P2;Temp;Humidity;BMP_temperature;BMP_pressure;BME280_temperature;BME280_humidity;BME280_pressure;Samples;Min_cycle;Max_cycle;Signal;HPM_P1;HPM_P2
2022/09/15 00:00:50;;;;;;;7.32;2.67;;;15.40;99.90;;;;;;5117631;27;20167;-63
2022/09/15 00:03:17;;;;;;;5.25;2.58;;;15.40;99.90;;;;;;5115553;27;20100;-63
2022/09/15 00:05:43;;;;;;;7.00;2.55;;;15.40;99.90;;;;;;5092732;27;20051;-63
2022/09/15 00:08:09;;;;;;;9.48;3.00;;;15.40;99.90;;;;;;5111059;28;20075;-63
2022/09/15 00:10:35;;;;;;;5.90;2.30;;;15.50;99.90;;;;;;5120103;27;21834;-63
2022/09/15 00:13:01;;;;;;;8.70;3.13;;;15.50;99.90;;;;;;5110301;28;20065;-63
2022/09/15 00:15:27;;;;;;;10.23;3.05;;;15.40;99.90;;;;;;5074676;28;20115;-64
2022/09/15 00:17:53;;;;;;;10.43;2.95;;;15.40;99.90;;;;;;5114694;28;20047;-63
2022/09/15 00:20:20;;;;;;;9.50;3.25;;;15.40;99.90;;;;;;5092383;28;20070;-63
2022/09/15 00:22:47;;;;;;;8.50;3.03;;;15.40;99.90;;;;;;5101604;28;20081;-62
2022/09/15 00:25:14;;;;;;;11.98;3.10;;;15.40;99.90;;;;;;5110211;28;20052;-62
2022/09/15 00:27:40;;;;;;;7.40;3.00;;;15.40;99.90;;;;;;5111072;28;20119;-62
2022/09/15 00:30:06;;;;;;;9.00;2.75;;;15.40;99.90;;;;;;5115108;27;20139;-63
2022/09/15 00:32:33;;;;;;;4.57;2.70;;;15.40;99.90;;;;;;5133797;27;20100;-64
2022/09/15 00:34:58;;;;;;;7.20;2.35;;;15.40;99.90;;;;;;5111147;28;20363;-63
2022/09/15 00:37:24;;;;;;;4.25;1.95;;;15.40;99.90;;;;;;5124276;28;20100;-65
2022/09/15 00:39:51;;;;;;;8.60;2.38;;;15.40;99.90;;;;;;5091582;28;20039;-62
2022/09/15 00:42:20;;;;;;;5.50;2.08;;;15.40;99.90;;;;;;5117910;27;20063;-63
2022/09/15 00:44:47;;;;;;;6.72;2.20;;;15.50;99.90;;;;;;5133534;27;20552;-63
2022/09/15 00:47:14;;;;;;;4.57;2.00;;;15.50;99.90;;;;;;5126451;28;20055;-63
2022/09/15 00:49:41;;;;;;;6.63;2.25;;;15.50;99.90;;;;;;5107916;28;20126;-63
2022/09/15 00:52:12;;;;;;;7.20;1.98;;;15.50;99.90;;;;;;5130553;28;20051;-63
2022/09/15 00:54:53;;;;;;;4.50;2.10;;;15.60;99.90;;;;;;5135165;27;20475;-62
2022/09/15 00:57:34;;;;;;;7.82;2.38;;;15.60;99.90;;;;;;5085976;28;20104;-65
2022/09/15 01:00:03;;;;;;;4.25;1.58;;;15.60;99.90;;;;;;5107945;28;20036;-64
2022/09/15 01:02:31;;;;;;;7.25;1.73;;;15.60;99.90;;;;;;5130236;28;20058;-66
2022/09/15 01:04:58;;;;;;;6.70;1.70;;;15.60;99.90;;;;;;5131662;27;20092;-62
2022/09/15 01:07:58;;;;;;;6.15;1.58;;;15.60;99.90;;;;;;5112211;28;20074;-63
2022/09/15 01:10:33;;;;;;;6.78;1.55;;;15.60;99.90;;;;;;5121881;28;20114;-63
2022/09/15 01:13:01;;;;;;;7.13;1.55;;;15.60;99.90;;;;;;5115744;28;20071;-63
2022/09/15 01:15:52;;;;;;;11.80;1.90;;;15.60;99.90;;;;;;5133726;27;20450;-62
2022/09/15 01:18:21;;;;;;;7.38;1.70;;;15.60;99.90;;;;;;5131747;27;20035;-63
2022/09/15 01:21:05;;;;;;;6.68;1.77;;;15.60;99.90;;;;;;5116807;27;20058;-63
2022/09/15 01:23:54;;;;;;;10.02;1.70;;;15.60;99.90;;;;;;5100504;27;20103;-66
2022/09/15 01:26:38;;;;;;;4.28;1.45;;;15.60;99.90;;;;;;5134902;27;20058;-62
2022/09/15 01:29:53;;;;;;;7.28;1.67;;;15.60;99.90;;;;;;5114573;27;20050;-64
2022/09/15 01:35:23;;;;;;;7.95;1.65;;;15.60;99.90;;;;;;5132742;27;20081;-63
2022/09/15 01:38:07;;;;;;;7.55;1.50;;;15.60;99.90;;;;;;5133397;27;20080;-63
2022/09/15 01:41:01;;;;;;;11.97;1.90;;;15.60;99.90;;;;;;5113981;27;20406;-66
2022/09/15 01:43:28;;;;;;;8.10;1.85;;;15.60;99.90;;;;;;5131381;27;20061;-63
2022/09/15 01:45:56;;;;;;;7.95;1.70;;;15.60;99.90;;;;;;5103235;27;20062;-63
2022/09/15 01:48:24;;;;;;;7.53;2.22;;;15.60;99.90;;;;;;5106622;27;20101;-62
2022/09/15 01:50:56;;;;;;;4.22;1.50;;;15.60;99.90;;;;;;5117374;27;20489;-63
2022/09/15 01:53:22;;;;;;;8.13;1.75;;;15.50;99.90;;;;;;5094996;28;20051;-62
2022/09/15 01:55:53;;;;;;;8.80;1.50;;;15.50;99.90;;;;;;5111905;28;20485;-63
2022/09/15 01:58:19;;;;;;;7.75;2.15;;;15.50;99.90;;;;;;5130009;27;20040;-63
2022/09/15 02:00:52;;;;;;;9.32;1.85;;;15.60;99.90;;;;;;5113639;27;20046;-64
2022/09/15 02:03:32;;;;;;;8.52;2.15;;;15.60;99.90;;;;;;5094493;28;20048;-62
2022/09/15 02:06:06;;;;;;;6.65;1.77;;;15.50;99.90;;;;;;5093703;28;20032;-62
2022/09/15 02:08:51;;;;;;;7.10;1.65;;;15.30;99.90;;;;;;5120499;27;20055;-62
2022/09/15 02:11:24;;;;;;;7.82;1.75;;;15.10;99.90;;;;;;5114269;27;20120;-63
2022/09/15 02:14:19;;;;;;;5.23;1.60;;;15.00;99.90;;;;;;5101615;28;20051;-64
2022/09/15 02:16:51;;;;;;;;;;;15.00;99.90;;;;;;5112311;28;20281;-62
2022/09/15 02:19:39;;;;;;;7.80;2.20;;;14.90;99.90;;;;;;5087450;28;19963;-62
2022/09/15 02:22:09;;;;;;;8.23;2.28;;;14.80;99.90;;;;;;5085574;27;20078;-62
2022/09/15 02:24:43;;;;;;;9.02;2.20;;;14.80;99.90;;;;;;5125502;27;20070;-62
2022/09/15 02:27:11;;;;;;;;;;;14.70;99.90;;;;;;5112216;27;20406;-62
2022/09/15 02:29:38;;;;;;;5.55;1.65;;;14.70;99.90;;;;;;5123725;27;19923;-62
2022/09/15 02:32:06;;;;;;;8.38;1.88;;;14.60;99.90;;;;;;5112526;27;20481;-63
2022/09/15 02:34:37;;;;;;;21.15;11.63;;;14.50;99.90;;;;;;5117357;27;20044;-64
2022/09/15 02:37:03;;;;;;;38.10;18.55;;;14.40;99.90;;;;;;5116622;27;20039;-63
2022/09/15 02:39:36;;;;;;;26.52;12.50;;;14.40;99.90;;;;;;5115484;27;20082;-64
2022/09/15 02:42:02;;;;;;;16.92;7.60;;;14.30;99.90;;;;;;5116473;27;20055;-63
2022/09/15 02:44:29;;;;;;;9.00;2.75;;;14.20;99.90;;;;;;5124400;27;20065;-63
2022/09/15 02:47:00;;;;;;;6.28;1.80;;;14.20;99.90;;;;;;5094389;27;20059;-64
2022/09/15 02:49:26;;;;;;;7.78;1.90;;;14.10;99.90;;;;;;5131492;27;20055;-63
2022/09/15 02:51:52;;;;;;;13.57;3.15;;;14.10;99.90;;;;;;5113154;27;20051;-63
2022/09/15 02:54:18;;;;;;;11.50;3.10;;;14.20;99.90;;;;;;5126177;27;20425;-62
2022/09/15 02:56:44;;;;;;;10.10;2.97;;;14.20;99.90;;;;;;5132261;27;20049;-66
2022/09/15 02:59:09;;;;;;;7.38;1.80;;;14.30;99.90;;;;;;5113554;27;20047;-63
2022/09/15 03:01:35;;;;;;;7.40;1.67;;;14.30;99.90;;;;;;5113255;27;20047;-64
2022/09/15 03:04:02;;;;;;;8.63;1.88;;;14.30;99.90;;;;;;5108699;27;20047;-64
2022/09/15 03:06:34;;;;;;;6.93;1.63;;;14.30;99.90;;;;;;5113552;27;20039;-63
2022/09/15 03:09:06;;;;;;;7.68;2.13;;;14.30;99.90;;;;;;5131396;27;20047;-64
2022/09/15 03:11:33;;;;;;;5.50;2.00;;;14.40;99.90;;;;;;5115010;27;20256;-64
2022/09/15 03:14:01;;;;;;;7.28;1.77;;;14.30;99.90;;;;;;5127697;27;20047;-64
2022/09/15 03:16:29;;;;;;;7.53;1.90;;;14.30;99.90;;;;;;5131791;27;20104;-63
2022/09/15 03:18:58;;;;;;;8.10;1.92;;;14.30;99.90;;;;;;5131220;27;20055;-64
2022/09/15 03:21:24;;;;;;;9.80;2.47;;;14.40;99.90;;;;;;5131381;27;20036;-63
2022/09/15 03:23:50;;;;;;;9.77;2.08;;;14.30;99.90;;;;;;5111765;27;20434;-62
2022/09/15 03:26:16;;;;;;;12.55;2.35;;;14.30;99.90;;;;;;5111936;27;20124;-64
2022/09/15 03:28:42;;;;;;;10.20;1.70;;;14.40;99.90;;;;;;5117393;27;20043;-62
2022/09/15 03:31:08;;;;;;;9.50;2.00;;;14.40;99.90;;;;;;5132127;27;20047;-63
2022/09/15 03:33:34;;;;;;;6.47;2.15;;;14.40;99.90;;;;;;5108867;27;20484;-63
2022/09/15 03:36:01;;;;;;;6.03;1.60;;;14.40;99.90;;;;;;5128363;27;20057;-63
2022/09/15 03:38:27;;;;;;;9.40;1.95;;;14.40;99.90;;;;;;5124500;27;20121;-63
2022/09/15 03:41:03;;;;;;;8.52;1.60;;;14.40;99.90;;;;;;5112663;27;20126;-64
2022/09/15 03:43:30;;;;;;;16.38;2.10;;;14.50;99.90;;;;;;5114122;27;20111;-64
2022/09/15 03:45:57;;;;;;;7.00;1.88;;;14.50;99.90;;;;;;5115368;27;20042;-63
2022/09/15 03:48:23;;;;;;;5.95;1.75;;;14.50;99.90;;;;;;5130235;27;20047;-64
2022/09/15 03:50:49;;;;;;;9.95;1.80;;;14.50;99.90;;;;;;5126715;27;20047;-64
2022/09/15 03:53:15;;;;;;;10.55;1.80;;;14.50;99.90;;;;;;5114438;27;20051;-63
2022/09/15 03:55:41;;;;;;;7.03;1.95;;;14.50;99.90;;;;;;5127762;27;20039;-64
2022/09/15 03:58:07;;;;;;;6.45;1.45;;;14.60;99.90;;;;;;5100709;27;20065;-64
2022/09/15 04:00:33;;;;;;;7.07;1.80;;;14.60;99.90;;;;;;5127374;27;20039;-64
2022/09/15 04:02:58;;;;;;;9.30;2.13;;;14.60;99.90;;;;;;5076493;27;20784;-63
2022/09/15 04:05:24;;;;;;;7.47;1.70;;;14.60;99.90;;;;;;5110827;27;20127;-63
2022/09/15 04:07:50;;;;;;;7.88;1.83;;;14.60;99.90;;;;;;5097602;28;20043;-63
2022/09/15 04:10:16;;;;;;;4.60;1.60;;;14.60;99.90;;;;;;5077118;28;20058;-63
2022/09/15 04:12:43;;;;;;;13.15;2.30;;;14.60;99.90;;;;;;5111408;28;20047;-63
2022/09/15 04:15:09;;;;;;;8.25;2.42;;;14.60;99.90;;;;;;5119182;27;20073;-62
2022/09/15 04:17:35;;;;;;;8.48;1.92;;;14.60;99.90;;;;;;5093357;28;20051;-63
2022/09/15 04:20:01;;;;;;;7.70;1.85;;;14.60;99.90;;;;;;5109874;28;20636;-63
2022/09/15 04:22:30;;;;;;;9.20;1.95;;;14.60;99.90;;;;;;5110379;28;20051;-63
2022/09/15 04:24:56;;;;;;;10.15;1.98;;;14.60;99.90;;;;;;5121077;27;20040;-67
2022/09/15 04:27:22;;;;;;;13.00;2.28;;;14.60;99.90;;;;;;5110327;27;20098;-63
2022/09/15 04:29:51;;;;;;;8.30;2.10;;;14.50;99.90;;;;;;5092703;28;20507;-63
2022/09/15 04:32:17;;;;;;;8.68;2.45;;;14.50;99.90;;;;;;5091675;28;20075;-62
2022/09/15 04:34:43;;;;;;;11.27;2.47;;;14.50;99.90;;;;;;5117471;27;20035;-62
2022/09/15 04:37:09;;;;;;;8.93;2.35;;;14.40;99.90;;;;;;5121719;27;20044;-63
2022/09/15 04:39:35;;;;;;;7.90;2.20;;;14.40;99.90;;;;;;5100792;28;20052;-64
2022/09/15 04:42:04;;;;;;;10.90;1.77;;;14.40;99.90;;;;;;5109671;28;20407;-63
2022/09/15 04:44:30;;;;;;;8.98;2.20;;;14.40;99.90;;;;;;5089355;28;20059;-63
2022/09/15 04:46:56;;;;;;;7.85;1.83;;;14.40;99.90;;;;;;5128633;27;20055;-64
2022/09/15 04:49:21;;;;;;;10.48;2.17;;;14.30;99.90;;;;;;5118767;27;20052;-63
2022/09/15 04:51:47;;;;;;;9.98;1.80;;;14.30;99.90;;;;;;5124389;27;20039;-63
2022/09/15 04:54:13;;;;;;;11.68;2.35;;;14.30;99.90;;;;;;5115845;27;20069;-63
2022/09/15 04:56:38;;;;;;;7.93;2.13;;;14.30;99.90;;;;;;5119672;27;20036;-63
2022/09/15 04:59:04;;;;;;;15.38;2.60;;;14.40;99.90;;;;;;5097607;27;20044;-63
2022/09/15 05:01:32;;;;;;;9.52;2.20;;;14.40;99.90;;;;;;5119179;27;20119;-63
2022/09/15 05:04:02;;;;;;;8.60;2.22;;;14.40;99.90;;;;;;5095282;28;20584;-63
2022/09/15 05:06:28;;;;;;;4.68;1.50;;;14.40;99.90;;;;;;5116028;27;20040;-63
2022/09/15 05:08:55;;;;;;;16.83;2.50;;;14.40;99.90;;;;;;5085994;28;20408;-63
2022/09/15 05:11:23;;;;;;;6.60;1.70;;;14.30;99.90;;;;;;5109793;27;20618;-64
2022/09/15 05:13:49;;;;;;;9.27;2.05;;;14.30;99.90;;;;;;5107829;27;20050;-64
2022/09/15 05:16:18;;;;;;;9.70;2.17;;;14.30;99.90;;;;;;5133180;27;20039;-64
2022/09/15 05:18:45;;;;;;;10.43;2.33;;;14.30;99.90;;;;;;5138584;27;20051;-64
2022/09/15 05:21:13;;;;;;;9.10;2.30;;;14.30;99.90;;;;;;5127296;27;20119;-65
2022/09/15 05:23:39;;;;;;;8.23;1.95;;;14.30;99.90;;;;;;5133894;27;20035;-64
2022/09/15 05:26:07;;;;;;;5.75;1.83;;;14.30;99.90;;;;;;5129126;27;20088;-67
2022/09/15 05:28:35;;;;;;;8.48;2.15;;;14.20;99.90;;;;;;5127434;27;20107;-64
2022/09/15 05:31:06;;;;;;;7.32;1.95;;;14.20;99.90;;;;;;5124899;27;20038;-63
2022/09/15 05:33:32;;;;;;;12.18;2.42;;;14.20;99.90;;;;;;5107273;27;20051;-64
2022/09/15 05:35:59;;;;;;;7.45;1.60;;;14.20;99.90;;;;;;5133563;27;20104;-64
2022/09/15 05:38:28;;;;;;;10.07;2.53;;;14.20;99.90;;;;;;5136258;27;20162;-63
2022/09/15 05:40:54;;;;;;;4.97;1.52;;;13.90;99.90;;;;;;5131825;27;20442;-63
2022/09/15 05:43:20;;;;;;;7.07;1.88;;;14.30;99.90;;;;;;5118394;27;20068;-63
2022/09/15 05:45:55;;;;;;;7.32;2.10;;;14.30;99.90;;;;;;5128119;27;20503;-62
2022/09/15 05:48:21;;;;;;;12.70;2.40;;;14.30;99.90;;;;;;5125959;27;20403;-63
2022/09/15 05:50:51;;;;;;;6.25;1.92;;;14.40;99.90;;;;;;5113592;27;20039;-63
2022/09/15 05:53:18;;;;;;;7.97;2.17;;;14.40;99.90;;;;;;5120627;27;20040;-64
2022/09/15 05:55:43;;;;;;;6.18;1.85;;;14.40;99.90;;;;;;5112730;28;20032;-63
2022/09/15 05:58:09;;;;;;;10.55;2.33;;;14.40;99.90;;;;;;5094477;28;20047;-66
2022/09/15 06:00:35;;;;;;;6.95;1.80;;;14.40;99.90;;;;;;5119156;27;20039;-63
2022/09/15 06:03:01;;;;;;;6.70;2.08;;;14.50;99.90;;;;;;5094813;27;20528;-64
2022/09/15 06:05:27;;;;;;;10.35;1.90;;;14.50;99.90;;;;;;5100179;28;20043;-62
2022/09/15 06:07:56;;;;;;;5.75;1.63;;;14.60;99.90;;;;;;5125115;27;20058;-62
2022/09/15 06:10:25;;;;;;;6.55;1.70;;;14.60;99.90;;;;;;5115051;27;20392;-63
2022/09/15 06:12:55;;;;;;;8.02;1.80;;;14.70;99.90;;;;;;5131495;27;20079;-63
2022/09/15 06:15:22;;;;;;;5.47;1.38;;;14.70;99.90;;;;;;5114450;27;20055;-62
2022/09/15 06:17:48;;;;;;;13.90;2.33;;;14.80;99.90;;;;;;5120480;27;20043;-63
2022/09/15 06:20:14;;;;;;;9.50;2.00;;;14.90;99.90;;;;;;5124540;27;20449;-63
2022/09/15 06:22:39;;;;;;;8.80;1.75;;;14.90;99.90;;;;;;5088117;28;20560;-63
2022/09/15 06:25:06;;;;;;;6.10;1.73;;;14.90;99.90;;;;;;5116530;27;20066;-63
2022/09/15 06:27:32;;;;;;;9.27;1.92;;;15.00;99.90;;;;;;5078815;28;20726;-63
2022/09/15 06:29:58;;;;;;;9.68;1.75;;;15.00;99.90;;;;;;5095309;28;20051;-63
2022/09/15 06:32:24;;;;;;;7.38;2.15;;;15.10;99.90;;;;;;5097152;27;20077;-63
2022/09/15 06:34:50;;;;;;;7.53;1.92;;;15.10;99.90;;;;;;5116202;27;20153;-63
2022/09/15 06:37:15;;;;;;;7.40;1.88;;;15.20;99.90;;;;;;5095022;28;20052;-64
2022/09/15 06:39:44;;;;;;;5.43;1.67;;;15.30;99.90;;;;;;5074193;28;20055;-64
2022/09/15 06:42:10;;;;;;;4.93;1.55;;;15.30;99.90;;;;;;5118046;27;20058;-61
2022/09/15 06:44:36;;;;;;;6.30;1.48;;;15.30;99.90;;;;;;5116543;27;20239;-64
2022/09/15 06:47:02;;;;;;;4.53;1.63;;;15.40;99.90;;;;;;5112147;27;20481;-62
2022/09/15 06:49:30;;;;;;;4.75;1.33;;;15.40;99.90;;;;;;5117102;27;20171;-63
2022/09/15 06:51:56;;;;;;;5.82;1.48;;;15.40;99.90;;;;;;5112121;27;20063;-63
2022/09/15 06:54:22;;;;;;;6.38;1.52;;;15.50;99.90;;;;;;5112201;27;20043;-63
2022/09/15 06:56:48;;;;;;;4.10;1.50;;;15.50;99.90;;;;;;5111716;28;20046;-63
2022/09/15 06:59:15;;;;;;;4.60;1.27;;;15.60;99.90;;;;;;5114028;27;20046;-64
2022/09/15 07:01:41;;;;;;;6.22;1.17;;;15.70;99.90;;;;;;5111111;28;20173;-63
2022/09/15 07:04:08;;;;;;;4.43;1.20;;;15.70;99.90;;;;;;5111096;28;20055;-65
2022/09/15 07:06:37;;;;;;;6.97;1.45;;;15.80;99.90;;;;;;5115381;27;20515;-64
2022/09/15 07:09:04;;;;;;;7.18;1.40;;;15.80;99.90;;;;;;5111424;28;20085;-63
2022/09/15 07:11:30;;;;;;;5.88;1.40;;;15.90;99.90;;;;;;5113471;27;20109;-63
2022/09/15 07:13:56;;;;;;;6.20;1.30;;;16.00;99.90;;;;;;5110737;27;20050;-63
2022/09/15 07:16:24;;;;;;;5.80;1.50;;;16.20;99.90;;;;;;5096639;27;20051;-63
2022/09/15 07:18:50;;;;;;;4.82;1.48;;;16.40;99.90;;;;;;5094197;28;20484;-63
2022/09/15 07:21:21;;;;;;;5.05;1.40;;;16.60;99.90;;;;;;5119076;27;20071;-64
2022/09/15 07:23:47;;;;;;;6.22;1.50;;;16.70;99.90;;;;;;5094558;28;20055;-62
2022/09/15 07:26:17;;;;;;;5.75;1.85;;;16.70;99.90;;;;;;5113309;27;20078;-63
2022/09/15 07:28:46;;;;;;;8.68;1.58;;;16.60;99.90;;;;;;5110848;28;20385;-63
2022/09/15 07:31:15;;;;;;;6.85;1.80;;;16.60;99.90;;;;;;5116316;27;20122;-63
2022/09/15 07:33:41;;;;;;;5.15;1.67;;;16.50;99.90;;;;;;5110725;27;20050;-63
2022/09/15 07:36:08;;;;;;;9.57;2.20;;;16.50;99.90;;;;;;5111095;28;20036;-63
2022/09/15 07:38:39;;;;;;;4.50;1.70;;;16.40;99.90;;;;;;5110448;27;20047;-64
2022/09/15 07:41:07;;;;;;;7.68;1.58;;;16.30;99.90;;;;;;5110931;28;20079;-64
2022/09/15 07:43:32;;;;;;;6.75;1.85;;;16.30;99.90;;;;;;5095136;27;20120;-63
2022/09/15 07:45:59;;;;;;;8.90;2.00;;;16.20;99.90;;;;;;5119931;27;20055;-63
2022/09/15 07:48:25;;;;;;;10.40;1.80;;;16.10;99.90;;;;;;5110897;27;20047;-64
2022/09/15 07:50:51;;;;;;;5.45;1.60;;;16.00;99.90;;;;;;5102438;28;20043;-63
2022/09/15 07:53:17;;;;;;;7.63;1.85;;;15.80;99.90;;;;;;5107641;27;20499;-64
2022/09/15 07:55:42;;;;;;;5.88;1.73;;;15.60;99.90;;;;;;5113271;27;20065;-64
2022/09/15 07:58:08;;;;;;;7.95;1.80;;;15.60;99.90;;;;;;5099532;28;20435;-64
2022/09/15 08:00:35;;;;;;;5.85;1.83;;;15.50;99.90;;;;;;5123697;27;20055;-62
2022/09/15 08:03:00;;;;;;;4.32;1.58;;;15.50;99.90;;;;;;5118943;27;20470;-63
2022/09/15 08:05:27;;;;;;;8.95;1.83;;;15.60;99.90;;;;;;5097385;28;20035;-66
2022/09/15 08:07:56;;;;;;;12.70;2.00;;;15.80;99.90;;;;;;5111919;27;20058;-63
2022/09/15 08:10:23;;;;;;;8.27;2.47;;;15.90;99.90;;;;;;5110757;28;20043;-63
2022/09/15 08:12:50;;;;;;;8.50;1.85;;;16.00;99.90;;;;;;5075057;27;20051;-64
2022/09/15 08:15:17;;;;;;;8.90;2.40;;;16.20;99.90;;;;;;5113454;27;20035;-64
2022/09/15 08:17:43;;;;;;;8.07;2.30;;;16.40;99.90;;;;;;5090822;28;20054;-63
2022/09/15 08:20:10;;;;;;;5.97;1.60;;;16.60;99.90;;;;;;5109522;28;20043;-63
2022/09/15 08:22:36;;;;;;;6.85;2.05;;;17.00;99.90;;;;;;5093251;28;20078;-63
2022/09/15 08:25:02;;;;;;;9.45;1.83;;;17.30;99.90;;;;;;5109242;27;20047;-63
2022/09/15 08:27:28;;;;;;;6.57;1.80;;;17.40;99.90;;;;;;5112551;27;20086;-66
2022/09/15 08:29:54;;;;;;;8.35;1.83;;;17.40;99.90;;;;;;5112448;27;20075;-63
2022/09/15 08:32:20;;;;;;;8.27;2.15;;;17.50;99.90;;;;;;5116595;27;20074;-62
2022/09/15 08:34:45;;;;;;;7.50;1.60;;;17.60;99.90;;;;;;5122723;27;20043;-62
2022/09/15 08:37:11;;;;;;;9.02;1.92;;;17.70;99.90;;;;;;5126056;27;20039;-64
2022/09/15 08:39:36;;;;;;;7.43;2.00;;;17.70;99.90;;;;;;5108094;27;20051;-63
2022/09/15 08:42:03;;;;;;;12.88;2.65;;;17.80;99.90;;;;;;5091677;27;20074;-64
2022/09/15 08:45:14;;;;;;;10.80;2.60;;;17.80;99.90;;;;;;5091438;27;20135;-67
2022/09/15 08:47:44;;;;;;;11.82;2.10;;;17.70;99.90;;;;;;5100320;28;20078;-63
2022/09/15 08:50:21;;;;;;;7.10;1.83;;;17.80;99.90;;;;;;5096067;28;20074;-63
2022/09/15 08:53:08;;;;;;;7.38;1.80;;;18.90;99.90;;;;;;5107789;27;20047;-62
2022/09/15 08:55:49;;;;;;;12.55;1.63;;;20.40;99.90;;;;;;5114796;27;20142;-64
2022/09/15 08:58:19;;;;;;;6.85;1.70;;;21.30;99.90;;;;;;5108695;27;20047;-64
2022/09/15 09:00:50;;;;;;;10.40;1.80;;;21.20;99.30;;;;;;5097929;27;20047;-62
2022/09/15 09:03:33;;;;;;;7.35;2.08;;;20.60;99.90;;;;;;5113734;27;20054;-62
2022/09/15 09:06:24;;;;;;;6.88;2.22;;;19.70;99.90;;;;;;5124187;27;20065;-66
2022/09/15 09:09:08;;;;;;;7.90;1.98;;;18.80;99.90;;;;;;5113129;28;20089;-63
2022/09/15 09:11:40;;;;;;;6.68;1.88;;;18.20;99.90;;;;;;5116193;27;20043;-64
2022/09/15 09:14:57;;;;;;;6.97;2.05;;;17.70;99.90;;;;;;5108715;27;20043;-64
2022/09/15 09:18:03;;;;;;;6.88;2.25;;;17.30;99.90;;;;;;5111364;27;20202;-64
2022/09/15 09:20:35;;;;;;;7.20;1.60;;;17.10;99.90;;;;;;5077796;28;20059;-63
2022/09/15 09:23:06;;;;;;;8.65;2.22;;;16.90;99.90;;;;;;5099739;27;20043;-62
2022/09/15 09:25:32;;;;;;;8.20;2.08;;;16.90;99.90;;;;;;5129665;27;20395;-62
2022/09/15 09:28:00;;;;;;;7.93;2.03;;;16.90;99.90;;;;;;5106261;27;20154;-62
2022/09/15 09:30:31;;;;;;;9.43;2.17;;;16.80;99.90;;;;;;5115462;27;20062;-61
2022/09/15 09:32:56;;;;;;;6.35;1.70;;;16.70;99.90;;;;;;5109020;27;20419;-60
2022/09/15 09:35:25;;;;;;;8.80;1.80;;;16.60;99.90;;;;;;5121932;27;20059;-60
2022/09/15 09:37:52;;;;;;;7.32;1.75;;;16.50;99.90;;;;;;5120437;27;20082;-61
2022/09/15 09:40:18;;;;;;;8.98;2.20;;;16.40;99.90;;;;;;5116266;27;20092;-62
2022/09/15 09:42:44;;;;;;;6.28;1.67;;;16.40;99.90;;;;;;5113879;27;20086;-61
2022/09/15 09:45:15;;;;;;;5.68;1.60;;;16.40;99.90;;;;;;5112987;27;20043;-63
2022/09/15 09:47:42;;;;;;;7.25;2.00;;;16.50;99.90;;;;;;5096716;28;20505;-64
2022/09/15 09:50:31;;;;;;;6.65;1.73;;;16.50;99.90;;;;;;5114033;27;20396;-63
2022/09/15 09:52:57;;;;;;;7.95;1.92;;;16.60;99.90;;;;;;5083825;28;20132;-62
2022/09/15 09:55:25;;;;;;;3.75;1.45;;;16.60;99.90;;;;;;5112654;27;20123;-62
2022/09/15 09:57:53;;;;;;;2.53;1.33;;;16.60;99.90;;;;;;5109453;27;20472;-62
2022/09/15 10:00:32;;;;;;;6.50;1.70;;;16.60;99.90;;;;;;5129415;27;20039;-63
2022/09/15 10:03:15;;;;;;;7.43;1.77;;;16.60;99.90;;;;;;5119548;27;20107;-63
2022/09/15 10:05:42;;;;;;;4.22;1.75;;;16.70;99.90;;;;;;5116495;27;20079;-64
2022/09/15 10:08:16;;;;;;;6.57;1.98;;;16.80;99.90;;;;;;5125212;27;20459;-66
2022/09/15 10:10:54;;;;;;;3.78;1.40;;;17.00;99.90;;;;;;5100025;27;20056;-66
2022/09/15 10:13:21;;;;;;;5.53;1.63;;;17.10;99.90;;;;;;5120165;27;20075;-64
2022/09/15 10:15:56;;;;;;;7.18;1.80;;;17.30;99.90;;;;;;5107374;27;20035;-66
2022/09/15 10:18:30;;;;;;;9.95;1.88;;;17.40;99.90;;;;;;5108973;27;20112;-63
2022/09/15 10:20:56;;;;;;;7.20;1.90;;;17.40;99.90;;;;;;5095700;27;20048;-64
2022/09/15 10:23:28;;;;;;;8.48;1.58;;;17.40;99.90;;;;;;5112240;27;20063;-63
2022/09/15 10:26:15;;;;;;;9.23;2.08;;;17.30;99.90;;;;;;5119801;27;20051;-63
2022/09/15 10:28:41;;;;;;;8.77;1.92;;;17.30;99.90;;;;;;5108590;27;20500;-66
2022/09/15 10:31:14;;;;;;;4.78;1.65;;;17.10;99.90;;;;;;5112282;27;20051;-63
2022/09/15 10:33:43;;;;;;;5.05;1.55;;;17.00;99.90;;;;;;5097594;27;20433;-65
2022/09/15 10:36:15;;;;;;;7.00;1.60;;;16.90;99.90;;;;;;5112248;27;20123;-62
2022/09/15 10:38:53;;;;;;;6.97;1.90;;;16.70;99.90;;;;;;5111891;27;20078;-66
2022/09/15 10:41:24;;;;;;;5.57;1.90;;;16.60;99.90;;;;;;5119314;27;20519;-63
2022/09/15 10:44:00;;;;;;;7.05;1.85;;;16.60;99.90;;;;;;5116647;27;20466;-63
2022/09/15 10:46:35;;;;;;;5.90;1.75;;;16.50;99.90;;;;;;5120786;27;20135;-63
2022/09/15 10:49:01;;;;;;;11.70;2.42;;;16.60;99.90;;;;;;5109033;27;20055;-63
2022/09/15 10:52:00;;;;;;;3.47;1.50;;;16.50;99.90;;;;;;5126293;27;20043;-64
2022/09/15 10:55:03;;;;;;;5.10;1.67;;;16.60;99.90;;;;;;5113836;27;20085;-63
2022/09/15 10:57:34;;;;;;;5.57;1.30;;;16.60;99.90;;;;;;5093151;28;20157;-62
2022/09/15 11:00:13;;;;;;;2.65;1.30;;;16.70;99.90;;;;;;5110921;27;20047;-63
2022/09/15 11:03:14;;;;;;;3.03;1.35;;;16.70;99.90;;;;;;5112204;27;20044;-63
2022/09/15 11:06:12;;;;;;;4.40;1.40;;;16.70;99.90;;;;;;5040419;28;20519;-64
2022/09/15 11:09:13;;;;;;;3.08;1.10;;;16.80;99.90;;;;;;5121878;27;20075;-64
2022/09/15 11:12:03;;;;;;;4.38;1.20;;;17.00;99.90;;;;;;5097934;28;20130;-63
2022/09/15 11:15:02;;;;;;;2.45;1.10;;;17.10;99.90;;;;;;5121873;27;20373;-63
2022/09/15 11:17:40;;;;;;;6.82;1.80;;;17.20;99.90;;;;;;5117326;27;20055;-63
2022/09/15 11:20:41;;;;;;;2.63;1.25;;;17.40;99.90;;;;;;5114170;27;20051;-63
2022/09/15 11:23:31;;;;;;;5.90;1.70;;;17.40;99.90;;;;;;5074277;27;20617;-62
2022/09/15 11:26:21;;;;;;;10.45;1.50;;;17.50;99.90;;;;;;5120377;27;20047;-63
2022/09/15 11:28:52;;;;;;;8.88;1.40;;;17.50;99.90;;;;;;5097214;27;20059;-65
2022/09/15 11:31:33;;;;;;;4.30;1.50;;;17.70;99.90;;;;;;5110154;27;20044;-62
2022/09/15 11:34:10;;;;;;;5.75;1.73;;;17.80;99.90;;;;;;5120113;27;20047;-62
2022/09/15 11:36:48;;;;;;;8.10;2.22;;;18.00;99.90;;;;;;5099390;27;20116;-65
2022/09/15 11:39:28;;;;;;;10.27;1.73;;;18.20;99.90;;;;;;5092009;28;20143;-63
2022/09/15 11:42:05;;;;;;;6.28;1.50;;;18.30;99.90;;;;;;5125797;27;20102;-63
2022/09/15 11:44:41;;;;;;;7.95;1.50;;;18.30;99.90;;;;;;5097966;27;20079;-62
2022/09/15 11:47:29;;;;;;;9.68;1.85;;;18.40;99.90;;;;;;5110484;27;20055;-63
2022/09/15 11:50:23;;;;;;;5.65;1.42;;;18.40;99.90;;;;;;5106099;27;20050;-63
2022/09/15 11:53:01;;;;;;;7.18;1.90;;;18.20;99.90;;;;;;5105102;27;20054;-65
2022/09/15 11:55:41;;;;;;;5.50;1.95;;;18.00;99.90;;;;;;5135008;27;20071;-62
2022/09/15 11:58:40;;;;;;;5.38;1.70;;;18.00;99.90;;;;;;5111415;27;20401;-66
2022/09/15 12:01:11;;;;;;;5.82;1.70;;;17.80;99.90;;;;;;5097496;28;20067;-63
2022/09/15 12:03:37;;;;;;;4.57;1.30;;;17.80;99.90;;;;;;5116181;27;20039;-62
2022/09/15 12:06:14;;;;;;;4.07;1.27;;;17.80;99.90;;;;;;5094282;28;20120;-64
2022/09/15 12:09:04;;;;;;;6.30;1.60;;;17.90;99.90;;;;;;5116709;27;20400;-64
2022/09/15 12:12:00;;;;;;;3.60;1.77;;;18.00;99.90;;;;;;5104565;27;20042;-63
2022/09/15 12:14:56;;;;;;;6.13;1.55;;;18.20;99.90;;;;;;5091068;28;20064;-62
2022/09/15 12:17:37;;;;;;;4.53;1.70;;;18.40;99.90;;;;;;5096715;27;20059;-61
2022/09/15 12:20:23;;;;;;;5.22;1.27;;;18.50;99.90;;;;;;5100824;28;20067;-64
2022/09/15 12:23:10;;;;;;;2.97;1.17;;;18.50;99.90;;;;;;5091154;28;20060;-63
2022/09/15 12:26:14;;;;;;;5.55;1.67;;;18.50;99.90;;;;;;5112100;27;20048;-63
2022/09/15 12:28:50;;;;;;;5.22;1.60;;;18.40;99.90;;;;;;5114232;27;20432;-62
2022/09/15 12:31:24;;;;;;;5.90;1.80;;;18.40;99.90;;;;;;5109099;28;20143;-62
2022/09/15 12:34:25;;;;;;;4.05;1.20;;;18.50;99.90;;;;;;5114007;28;20128;-61
2022/09/15 12:37:06;;;;;;;5.93;1.50;;;18.50;99.90;;;;;;5092742;28;20469;-63
2022/09/15 12:39:43;;;;;;;6.28;1.50;;;18.60;99.90;;;;;;5112671;28;20043;-63
2022/09/15 12:42:22;;;;;;;6.25;1.67;;;18.70;99.90;;;;;;5111866;28;20063;-65
2022/09/15 12:44:55;;;;;;;3.95;1.55;;;18.70;99.90;;;;;;5111058;27;20051;-63
2022/09/15 12:47:27;;;;;;;8.95;1.65;;;18.70;99.90;;;;;;5117554;27;20050;-64
2022/09/15 12:49:57;;;;;;;6.82;1.60;;;18.70;99.90;;;;;;5103123;28;20112;-62
2022/09/15 12:52:24;;;;;;;7.10;1.70;;;18.80;99.90;;;;;;5128435;28;20051;-63
2022/09/15 12:54:55;;;;;;;6.63;1.80;;;18.80;99.90;;;;;;5130464;28;20043;-63
2022/09/15 12:57:28;;;;;;;9.93;2.90;;;18.70;99.90;;;;;;5128714;27;20047;-65
2022/09/15 13:00:22;;;;;;;8.27;1.92;;;18.60;99.90;;;;;;5131200;27;20393;-62
2022/09/15 13:02:49;;;;;;;8.37;1.93;;;18.30;99.90;;;;;;5119029;28;20132;-64
2022/09/15 13:05:40;;;;;;;6.28;1.50;;;18.10;99.90;;;;;;5129774;28;20300;-62
2022/09/15 13:08:32;;;;;;;7.95;2.35;;;17.90;99.90;;;;;;5127659;27;20100;-62
2022/09/15 13:11:11;;;;;;;6.90;1.92;;;17.70;99.90;;;;;;5117945;27;20039;-64
2022/09/15 13:13:53;;;;;;;5.10;1.20;;;17.70;99.90;;;;;;5117219;27;20047;-62